sensor_id;sensor_type;location;lat;lon;timestamp;temperature;humidity
13148;DHT22;6639;50.956;4.242;2023-02-18T00:01:33;14.90;99.90
13148;DHT22;6639;50.956;4.242;2023-02-18T00:04:01;15.00;99.90
13148;DHT22;6639;50.956;4.242;2023-02-18T00:06:30;14.80;99.90
13148;DHT22;6639;50.956;4.242;2023-02-18T00:08:58;15.10;99.90
13148;DHT22;6639;50.956;4.242;2023-02-18T00:11:27;15.20;99.90
13148;DHT22;6639;50.956;4.242;2023-02-18T00:13:56;14.70;99.90
13148;DHT22;6639;50.956;4.242;2023-02-18T00:16:25;14.40;99.90
13148;DHT22;6639;50.956;4.242;2023-02-18T00:18:54;14.30;99.90
13148;DHT22;6639;50.956;4.242;2023-02-18T00:21:23;14.50;99.90
13148;DHT22;6639;50.956;4.242;2023-02-18T00:23:51;14.60;99.90
13148;DHT22;6639;50.956;4.242;2023-02-18T00:26:19;14.70;99.90
13148;DHT22;6639;50.956;4.242;2023-02-18T00:28:46;14.70;99.90
13148;DHT22;6639;50.956;4.242;2023-02-18T00:31:16;14.70;99.90
13148;DHT22;6639;50.956;4.242;2023-02-18T00:33:43;14.90;99.90
13148;DHT22;6639;50.956;4.242;2023-02-18T00:36:12;14.80;99.90
13148;DHT22;6639;50.956;4.242;2023-02-18T00:38:44;14.90;99.90
13148;DHT22;6639;50.956;4.242;2023-02-18T00:41:11;14.90;99.90
13148;DHT22;6639;50.956;4.242;2023-02-18T00:43:38;14.70;99.90
13148;DHT22;6639;50.956;4.242;2023-02-18T00:46:05;14.80;99.90
13148;DHT22;6639;50.956;4.242;2023-02-18T00:48:33;14.80;99.90
13148;DHT22;6639;50.956;4.242;2023-02-18T00:51:00;14.60;99.90
13148;DHT22;6639;50.956;4.242;2023-02-18T00:53:27;14.50;99.90
13148;DHT22;6639;50.956;4.242;2023-02-18T00:55:56;14.60;99.90
13148;DHT22;6639;50.956;4.242;2023-02-18T00:58:23;14.50;99.90
13148;DHT22;6639;50.956;4.242;2023-02-18T01:00:50;14.80;99.90
13148;DHT22;6639;50.956;4.242;2023-02-18T01:03:18;14.90;99.90
13148;DHT22;6639;50.956;4.242;2023-02-18T01:05:45;14.80;99.90
13148;DHT22;6639;50.956;4.242;2023-02-18T01:08:12;14.50;99.90
13148;DHT22;6639;50.956;4.242;2023-02-18T01:10:41;14.30;99.90
13148;DHT22;6639;50.956;4.242;2023-02-18T01:13:10;14.50;99.90
13148;DHT22;6639;50.956;4.242;2023-02-18T01:15:38;14.60;99.90
13148;DHT22;6639;50.956;4.242;2023-02-18T01:18:06;14.70;99.90
13148;DHT22;6639;50.956;4.242;2023-02-18T01:20:33;14.50;99.90
13148;DHT22;6639;50.956;4.242;2023-02-18T01:23:00;14.60;99.90
13148;DHT22;6639;50.956;4.242;2023-02-18T01:25:27;14.60;99.90
13148;DHT22;6639;50.956;4.242;2023-02-18T01:27:54;14.60;99.90
13148;DHT22;6639;50.956;4.242;2023-02-18T01:30:24;14.70;99.90
13148;DHT22;6639;50.956;4.242;2023-02-18T01:32:51;14.20;99.90
13148;DHT22;6639;50.956;4.242;2023-02-18T01:35:19;14.00;99.90
13148;DHT22;6639;50.956;4.242;2023-02-18T01:37:46;14.00;99.90
13148;DHT22;6639;50.956;4.242;2023-02-18T01:40:16;13.90;99.90
13148;DHT22;6639;50.956;4.242;2023-02-18T01:42:43;14.10;99.90
13148;DHT22;6639;50.956;4.242;2023-02-18T01:45:44;14.10;99.90
13148;DHT22;6639;50.956;4.242;2023-02-18T01:48:17;14.20;99.90
13148;DHT22;6639;50.956;4.242;2023-02-18T01:50:48;14.00;99.90
13148;DHT22;6639;50.956;4.242;2023-02-18T01:53:19;14.30;99.90
13148;DHT22;6639;50.956;4.242;2023-02-18T01:55:47;14.20;99.90
13148;DHT22;6639;50.956;4.242;2023-02-18T01:58:15;14.10;99.90
13148;DHT22;6639;50.956;4.242;2023-02-18T02:00:45;14.10;99.90
13148;DHT22;6639;50.956;4.242;2023-02-18T02:03:11;14.20;99.90
13148;DHT22;6639;50.956;4.242;2023-02-18T02:05:38;14.40;99.90
13148;DHT22;6639;50.956;4.242;2023-02-18T02:08:05;14.50;99.90
13148;DHT22;6639;50.956;4.242;2023-02-18T02:10:42;14.40;99.90
13148;DHT22;6639;50.956;4.242;2023-02-18T02:13:14;14.00;99.90
13148;DHT22;6639;50.956;4.242;2023-02-18T02:15:46;14.20;99.90
13148;DHT22;6639;50.956;4.242;2023-02-18T02:18:29;14.30;99.90
13148;DHT22;6639;50.956;4.242;2023-02-18T02:21:44;14.20;99.90
13148;DHT22;6639;50.956;4.242;2023-02-18T02:24:45;13.90;99.90
13148;DHT22;6639;50.956;4.242;2023-02-18T02:27:22;14.20;99.90
13148;DHT22;6639;50.956;4.242;2023-02-18T02:30:22;14.10;99.90
13148;DHT22;6639;50.956;4.242;2023-02-18T02:33:37;13.90;99.90
13148;DHT22;6639;50.956;4.242;2023-02-18T02:36:12;14.10;99.90
13148;DHT22;6639;50.956;4.242;2023-02-18T02:38:48;14.30;99.90
13148;DHT22;6639;50.956;4.242;2023-02-18T02:41:23;14.00;99.90
13148;DHT22;6639;50.956;4.242;2023-02-18T02:43:58;14.20;99.90
13148;DHT22;6639;50.956;4.242;2023-02-18T02:46:30;14.00;99.90
13148;DHT22;6639;50.956;4.242;2023-02-18T02:49:08;13.90;99.90
13148;DHT22;6639;50.956;4.242;2023-02-18T02:51:43;14.20;99.90
13148;DHT22;6639;50.956;4.242;2023-02-18T02:54:14;14.30;99.90
13148;DHT22;6639;50.956;4.242;2023-02-18T02:56:41;14.00;99.90
13148;DHT22;6639;50.956;4.242;2023-02-18T02:59:11;13.60;99.90
13148;DHT22;6639;50.956;4.242;2023-02-18T03:01:51;13.50;99.90
13148;DHT22;6639;50.956;4.242;2023-02-18T03:04:49;13.70;99.90
13148;DHT22;6639;50.956;4.242;2023-02-18T03:10:29;13.50;99.90
13148;DHT22;6639;50.956;4.242;2023-02-18T03:13:06;13.70;99.90
13148;DHT22;6639;50.956;4.242;2023-02-18T03:15:41;13.80;99.90
13148;DHT22;6639;50.956;4.242;2023-02-18T03:18:16;13.80;99.90
13148;DHT22;6639;50.956;4.242;2023-02-18T03:20:50;13.80;99.90
13148;DHT22;6639;50.956;4.242;2023-02-18T03:23:24;13.50;99.90
13148;DHT22;6639;50.956;4.242;2023-02-18T03:25:54;13.50;99.90
13148;DHT22;6639;50.956;4.242;2023-02-18T03:28:23;13.40;99.90
13148;DHT22;6639;50.956;4.242;2023-02-18T03:30:54;13.50;99.90
13148;DHT22;6639;50.956;4.242;2023-02-18T03:33:26;13.50;99.90
13148;DHT22;6639;50.956;4.242;2023-02-18T03:35:55;13.50;99.90
13148;DHT22;6639;50.956;4.242;2023-02-18T03:38:28;13.40;99.90
13148;DHT22;6639;50.956;4.242;2023-02-18T03:40:57;13.60;99.90
13148;DHT22;6639;50.956;4.242;2023-02-18T03:43:24;13.40;99.90
13148;DHT22;6639;50.956;4.242;2023-02-18T03:45:51;13.50;99.90
13148;DHT22;6639;50.956;4.242;2023-02-18T03:48:18;13.30;99.90
13148;DHT22;6639;50.956;4.242;2023-02-18T03:50:45;13.20;99.90
13148;DHT22;6639;50.956;4.242;2023-02-18T03:53:12;13.40;99.90
13148;DHT22;6639;50.956;4.242;2023-02-18T03:55:40;13.60;99.90
13148;DHT22;6639;50.956;4.242;2023-02-18T03:58:08;13.40;99.90
13148;DHT22;6639;50.956;4.242;2023-02-18T04:00:35;13.40;99.90
13148;DHT22;6639;50.956;4.242;2023-02-18T04:03:02;13.20;99.90
13148;DHT22;6639;50.956;4.242;2023-02-18T04:05:29;13.10;99.90
13148;DHT22;6639;50.956;4.242;2023-02-18T04:07:55;13.30;99.90
13148;DHT22;6639;50.956;4.242;2023-02-18T04:10:22;13.70;99.90
13148;DHT22;6639;50.956;4.242;2023-02-18T04:12:51;13.70;99.90
13148;DHT22;6639;50.956;4.242;2023-02-18T04:15:18;13.60;99.90
13148;DHT22;6639;50.956;4.242;2023-02-18T04:17:44;13.40;99.90
13148;DHT22;6639;50.956;4.242;2023-02-18T04:20:12;13.50;99.90
13148;DHT22;6639;50.956;4.242;2023-02-18T04:22:39;13.50;99.90
13148;DHT22;6639;50.956;4.242;2023-02-18T04:25:06;13.80;99.90
13148;DHT22;6639;50.956;4.242;2023-02-18T04:27:33;13.60;99.90
13148;DHT22;6639;50.956;4.242;2023-02-18T04:30:02;13.40;99.90
13148;DHT22;6639;50.956;4.242;2023-02-18T04:32:29;13.50;99.90
13148;DHT22;6639;50.956;4.242;2023-02-18T04:34:56;13.70;99.90
13148;DHT22;6639;50.956;4.242;2023-02-18T04:37:23;13.80;99.90
13148;DHT22;6639;50.956;4.242;2023-02-18T04:39:50;13.60;99.90
13148;DHT22;6639;50.956;4.242;2023-02-18T04:42:17;13.60;99.90
13148;DHT22;6639;50.956;4.242;2023-02-18T04:44:44;13.70;99.90
13148;DHT22;6639;50.956;4.242;2023-02-18T04:47:12;13.40;99.90
13148;DHT22;6639;50.956;4.242;2023-02-18T04:49:39;13.80;99.90
13148;DHT22;6639;50.956;4.242;2023-02-18T04:52:06;13.50;99.90
13148;DHT22;6639;50.956;4.242;2023-02-18T04:54:32;13.90;99.90
13148;DHT22;6639;50.956;4.242;2023-02-18T04:56:59;14.00;99.90
13148;DHT22;6639;50.956;4.242;2023-02-18T04:59:26;13.70;99.90
13148;DHT22;6639;50.956;4.242;2023-02-18T05:01:53;13.70;99.90
13148;DHT22;6639;50.956;4.242;2023-02-18T05:04:21;13.70;99.90
13148;DHT22;6639;50.956;4.242;2023-02-18T05:06:48;13.60;99.90
13148;DHT22;6639;50.956;4.242;2023-02-18T05:09:15;13.60;99.90
13148;DHT22;6639;50.956;4.242;2023-02-18T05:11:42;13.70;99.90
13148;DHT22;6639;50.956;4.242;2023-02-18T05:14:09;13.90;99.90
13148;DHT22;6639;50.956;4.242;2023-02-18T05:16:36;13.60;99.90
13148;DHT22;6639;50.956;4.242;2023-02-18T05:19:03;13.60;99.90
13148;DHT22;6639;50.956;4.242;2023-02-18T05:21:32;13.60;99.90
13148;DHT22;6639;50.956;4.242;2023-02-18T05:23:59;13.80;99.90
13148;DHT22;6639;50.956;4.242;2023-02-18T05:26:26;14.00;99.90
13148;DHT22;6639;50.956;4.242;2023-02-18T05:28:53;13.70;99.90
13148;DHT22;6639;50.956;4.242;2023-02-18T05:31:21;13.80;99.90
13148;DHT22;6639;50.956;4.242;2023-02-18T05:33:48;13.40;99.90
13148;DHT22;6639;50.956;4.242;2023-02-18T05:36:15;13.40;99.90
13148;DHT22;6639;50.956;4.242;2023-02-18T05:38:43;13.70;99.90
13148;DHT22;6639;50.956;4.242;2023-02-18T05:41:10;13.70;99.90
13148;DHT22;6639;50.956;4.242;2023-02-18T05:43:37;13.10;99.90
13148;DHT22;6639;50.956;4.242;2023-02-18T05:46:18;12.90;99.90
13148;DHT22;6639;50.956;4.242;2023-02-18T05:48:45;12.80;99.90
13148;DHT22;6639;50.956;4.242;2023-02-18T05:51:12;12.80;99.90
13148;DHT22;6639;50.956;4.242;2023-02-18T05:53:39;12.90;99.90
13148;DHT22;6639;50.956;4.242;2023-02-18T05:56:07;13.00;99.90
13148;DHT22;6639;50.956;4.242;2023-02-18T05:58:34;13.00;99.90
13148;DHT22;6639;50.956;4.242;2023-02-18T06:01:01;13.10;99.90
13148;DHT22;6639;50.956;4.242;2023-02-18T06:03:28;13.10;99.90
13148;DHT22;6639;50.956;4.242;2023-02-18T06:05:55;13.10;99.90
13148;DHT22;6639;50.956;4.242;2023-02-18T06:08:22;13.00;99.90
13148;DHT22;6639;50.956;4.242;2023-02-18T06:10:49;13.00;99.90
13148;DHT22;6639;50.956;4.242;2023-02-18T06:13:18;12.80;99.90
13148;DHT22;6639;50.956;4.242;2023-02-18T06:15:44;13.10;99.90
13148;DHT22;6639;50.956;4.242;2023-02-18T06:18:11;13.00;99.90
13148;DHT22;6639;50.956;4.242;2023-02-18T06:20:39;12.80;99.90
13148;DHT22;6639;50.956;4.242;2023-02-18T06:23:06;12.70;99.90
13148;DHT22;6639;50.956;4.242;2023-02-18T06:25:33;12.70;99.90
13148;DHT22;6639;50.956;4.242;2023-02-18T06:27:59;12.70;99.90
13148;DHT22;6639;50.956;4.242;2023-02-18T06:30:28;13.10;99.90
13148;DHT22;6639;50.956;4.242;2023-02-18T06:32:55;13.10;99.90
13148;DHT22;6639;50.956;4.242;2023-02-18T06:35:22;13.00;99.90
13148;DHT22;6639;50.956;4.242;2023-02-18T06:37:49;12.90;99.90
13148;DHT22;6639;50.956;4.242;2023-02-18T06:40:16;13.20;99.90
13148;DHT22;6639;50.956;4.242;2023-02-18T06:42:43;13.30;99.90
13148;DHT22;6639;50.956;4.242;2023-02-18T06:45:10;13.50;99.90
13148;DHT22;6639;50.956;4.242;2023-02-18T06:47:38;13.80;99.90
13148;DHT22;6639;50.956;4.242;2023-02-18T06:50:06;13.70;99.90
13148;DHT22;6639;50.956;4.242;2023-02-18T06:52:33;13.50;99.90
13148;DHT22;6639;50.956;4.242;2023-02-18T06:55:03;13.20;99.90
13148;DHT22;6639;50.956;4.242;2023-02-18T06:57:30;13.40;99.90
13148;DHT22;6639;50.956;4.242;2023-02-18T06:59:57;13.40;99.90
13148;DHT22;6639;50.956;4.242;2023-02-18T07:02:24;13.00;99.90
13148;DHT22;6639;50.956;4.242;2023-02-18T07:04:52;13.10;99.90
13148;DHT22;6639;50.956;4.242;2023-02-18T07:07:19;13.00;99.90
13148;DHT22;6639;50.956;4.242;2023-02-18T07:09:46;12.80;99.90
13148;DHT22;6639;50.956;4.242;2023-02-18T07:12:13;12.70;99.90
13148;DHT22;6639;50.956;4.242;2023-02-18T07:14:40;12.70;99.90
13148;DHT22;6639;50.956;4.242;2023-02-18T07:17:07;12.90;99.90
13148;DHT22;6639;50.956;4.242;2023-02-18T07:19:34;13.10;99.90
13148;DHT22;6639;50.956;4.242;2023-02-18T07:22:02;13.10;99.90
13148;DHT22;6639;50.956;4.242;2023-02-18T07:24:29;13.00;99.90
13148;DHT22;6639;50.956;4.242;2023-02-18T07:26:56;13.20;99.90
13148;DHT22;6639;50.956;4.242;2023-02-18T07:29:40;12.90;99.90
13148;DHT22;6639;50.956;4.242;2023-02-18T07:32:10;12.80;99.90
13148;DHT22;6639;50.956;4.242;2023-02-18T07:34:37;12.80;99.90
13148;DHT22;6639;50.956;4.242;2023-02-18T07:37:06;12.90;99.90
13148;DHT22;6639;50.956;4.242;2023-02-18T07:39:34;12.50;99.90
13148;DHT22;6639;50.956;4.242;2023-02-18T07:42:01;12.80;99.90
13148;DHT22;6639;50.956;4.242;2023-02-18T07:44:28;12.70;99.90
13148;DHT22;6639;50.956;4.242;2023-02-18T07:46:55;12.80;99.90
13148;DHT22;6639;50.956;4.242;2023-02-18T07:49:22;12.70;99.90
13148;DHT22;6639;50.956;4.242;2023-02-18T07:51:49;12.80;99.90
13148;DHT22;6639;50.956;4.242;2023-02-18T07:54:18;12.70;99.90
13148;DHT22;6639;50.956;4.242;2023-02-18T07:56:47;12.90;99.90
13148;DHT22;6639;50.956;4.242;2023-02-18T07:59:14;12.70;99.90
13148;DHT22;6639;50.956;4.242;2023-02-18T08:01:41;12.90;99.90
13148;DHT22;6639;50.956;4.242;2023-02-18T08:04:08;13.30;99.90
13148;DHT22;6639;50.956;4.242;2023-02-18T08:06:37;13.10;99.90
13148;DHT22;6639;50.956;4.242;2023-02-18T08:09:04;13.40;99.90
13148;DHT22;6639;50.956;4.242;2023-02-18T08:11:33;13.30;99.90
13148;DHT22;6639;50.956;4.242;2023-02-18T08:14:00;13.50;99.90
13148;DHT22;6639;50.956;4.242;2023-02-18T08:16:27;13.10;99.90
13148;DHT22;6639;50.956;4.242;2023-02-18T08:18:55;13.10;99.90
13148;DHT22;6639;50.956;4.242;2023-02-18T08:21:23;13.20;99.90
13148;DHT22;6639;50.956;4.242;2023-02-18T08:23:51;13.10;99.90
13148;DHT22;6639;50.956;4.242;2023-02-18T08:26:18;13.30;99.90
13148;DHT22;6639;50.956;4.242;2023-02-18T08:28:47;13.30;99.90
13148;DHT22;6639;50.956;4.242;2023-02-18T08:31:16;12.80;99.90
13148;DHT22;6639;50.956;4.242;2023-02-18T08:33:43;12.80;99.90
13148;DHT22;6639;50.956;4.242;2023-02-18T08:36:10;13.20;99.90
13148;DHT22;6639;50.956;4.242;2023-02-18T08:38:37;13.30;99.90
13148;DHT22;6639;50.956;4.242;2023-02-18T08:41:05;13.40;99.90
13148;DHT22;6639;50.956;4.242;2023-02-18T08:43:33;13.60;99.90
13148;DHT22;6639;50.956;4.242;2023-02-18T08:46:02;13.50;99.90
13148;DHT22;6639;50.956;4.242;2023-02-18T08:48:30;13.30;99.90
13148;DHT22;6639;50.956;4.242;2023-02-18T08:50:56;13.10;99.90
13148;DHT22;6639;50.956;4.242;2023-02-18T08:53:24;13.40;99.90
13148;DHT22;6639;50.956;4.242;2023-02-18T08:55:51;13.30;99.90
13148;DHT22;6639;50.956;4.242;2023-02-18T08:58:18;13.10;99.90
13148;DHT22;6639;50.956;4.242;2023-02-18T09:00:45;13.50;99.90
13148;DHT22;6639;50.956;4.242;2023-02-18T09:03:14;13.50;99.90
13148;DHT22;6639;50.956;4.242;2023-02-18T09:05:41;13.80;99.90
13148;DHT22;6639;50.956;4.242;2023-02-18T09:08:08;13.50;99.90
13148;DHT22;6639;50.956;4.242;2023-02-18T09:10:35;13.60;99.90
13148;DHT22;6639;50.956;4.242;2023-02-18T09:13:04;13.60;99.90
13148;DHT22;6639;50.956;4.242;2023-02-18T09:15:30;13.20;99.90
13148;DHT22;6639;50.956;4.242;2023-02-18T09:17:57;13.40;99.90
13148;DHT22;6639;50.956;4.242;2023-02-18T09:20:26;13.40;99.90
13148;DHT22;6639;50.956;4.242;2023-02-18T09:22:53;13.30;99.90
13148;DHT22;6639;50.956;4.242;2023-02-18T09:25:20;13.20;99.90
13148;DHT22;6639;50.956;4.242;2023-02-18T09:27:47;13.30;99.90
13148;DHT22;6639;50.956;4.242;2023-02-18T09:30:14;13.30;99.90
13148;DHT22;6639;50.956;4.242;2023-02-18T09:32:41;13.30;99.90
13148;DHT22;6639;50.956;4.242;2023-02-18T09:35:08;13.50;99.90
13148;DHT22;6639;50.956;4.242;2023-02-18T09:37:36;13.50;99.90
13148;DHT22;6639;50.956;4.242;2023-02-18T09:40:06;13.80;99.90
13148;DHT22;6639;50.956;4.242;2023-02-18T09:42:34;13.70;99.90
13148;DHT22;6639;50.956;4.242;2023-02-18T09:45:05;13.90;99.90
13148;DHT22;6639;50.956;4.242;2023-02-18T09:47:35;13.90;99.90
13148;DHT22;6639;50.956;4.242;2023-02-18T09:50:06;13.80;99.90
13148;DHT22;6639;50.956;4.242;2023-02-18T09:52:36;13.90;99.90
13148;DHT22;6639;50.956;4.242;2023-02-18T09:55:19;13.80;99.90
13148;DHT22;6639;50.956;4.242;2023-02-18T09:57:49;13.70;99.90
13148;DHT22;6639;50.956;4.242;2023-02-18T10:00:19;13.80;99.90
13148;DHT22;6639;50.956;4.242;2023-02-18T10:02:53;13.80;99.90
13148;DHT22;6639;50.956;4.242;2023-02-18T10:05:21;13.90;99.90
13148;DHT22;6639;50.956;4.242;2023-02-18T10:07:53;14.20;99.90
13148;DHT22;6639;50.956;4.242;2023-02-18T10:10:32;13.90;99.90
13148;DHT22;6639;50.956;4.242;2023-02-18T10:13:02;13.70;99.90
13148;DHT22;6639;50.956;4.242;2023-02-18T10:15:30;13.90;99.90
13148;DHT22;6639;50.956;4.242;2023-02-18T10:17:58;13.90;99.90
13148;DHT22;6639;50.956;4.242;2023-02-18T10:20:28;13.80;99.90
13148;DHT22;6639;50.956;4.242;2023-02-18T10:23:00;13.70;99.90
13148;DHT22;6639;50.956;4.242;2023-02-18T10:25:30;13.60;99.90
13148;DHT22;6639;50.956;4.242;2023-02-18T10:27:59;13.60;99.90
13148;DHT22;6639;50.956;4.242;2023-02-18T10:30:31;13.70;99.90
13148;DHT22;6639;50.956;4.242;2023-02-18T10:33:10;13.90;99.90
13148;DHT22;6639;50.956;4.242;2023-02-18T10:35:47;14.10;99.90
13148;DHT22;6639;50.956;4.242;2023-02-18T10:38:24;14.20;99.90
13148;DHT22;6639;50.956;4.242;2023-02-18T10:41:00;14.00;99.90
13148;DHT22;6639;50.956;4.242;2023-02-18T10:43:35;14.20;99.90
13148;DHT22;6639;50.956;4.242;2023-02-18T10:46:13;14.10;99.90
13148;DHT22;6639;50.956;4.242;2023-02-18T10:48:51;13.90;99.90
13148;DHT22;6639;50.956;4.242;2023-02-18T10:51:29;14.00;99.90
13148;DHT22;6639;50.956;4.242;2023-02-18T10:54:00;14.10;99.90
13148;DHT22;6639;50.956;4.242;2023-02-18T10:56:40;14.30;99.90
13148;DHT22;6639;50.956;4.242;2023-02-18T10:59:12;14.00;99.90
13148;DHT22;6639;50.956;4.242;2023-02-18T11:01:41;14.10;99.90
13148;DHT22;6639;50.956;4.242;2023-02-18T11:04:15;14.10;99.90
13148;DHT22;6639;50.956;4.242;2023-02-18T11:06:44;14.00;99.90
13148;DHT22;6639;50.956;4.242;2023-02-18T11:09:27;14.40;99.90
13148;DHT22;6639;50.956;4.242;2023-02-18T11:12:02;14.50;99.90
13148;DHT22;6639;50.956;4.242;2023-02-18T11:14:41;14.30;99.90
13148;DHT22;6639;50.956;4.242;2023-02-18T11:17:20;14.40;99.90
13148;DHT22;6639;50.956;4.242;2023-02-18T11:19:53;14.70;99.90
13148;DHT22;6639;50.956;4.242;2023-02-18T11:22:23;14.80;99.90
13148;DHT22;6639;50.956;4.242;2023-02-18T11:24:55;14.60;99.90
13148;DHT22;6639;50.956;4.242;2023-02-18T11:27:26;14.90;99.90
13148;DHT22;6639;50.956;4.242;2023-02-18T11:29:59;15.10;99.90
13148;DHT22;6639;50.956;4.242;2023-02-18T11:32:28;15.20;99.90
13148;DHT22;6639;50.956;4.242;2023-02-18T11:34:55;14.90;99.90
13148;DHT22;6639;50.956;4.242;2023-02-18T11:37:23;14.80;99.90
13148;DHT22;6639;50.956;4.242;2023-02-18T11:39:53;14.70;99.90
13148;DHT22;6639;50.956;4.242;2023-02-18T11:42:23;14.60;99.90
13148;DHT22;6639;50.956;4.242;2023-02-18T11:44:53;14.70;99.90
13148;DHT22;6639;50.956;4.242;2023-02-18T11:47:23;14.70;99.90
13148;DHT22;6639;50.956;4.242;2023-02-18T11:50:20;14.80;99.90
13148;DHT22;6639;50.956;4.242;2023-02-18T11:52:48;14.80;99.90
13148;DHT22;6639;50.956;4.242;2023-02-18T11:55:20;15.00;99.90
13148;DHT22;6639;50.956;4.242;2023-02-18T11:57:51;15.20;99.90
13148;DHT22;6639;50.956;4.242;2023-02-18T12:00:24;15.10;99.90
13148;DHT22;6639;50.956;4.242;2023-02-18T12:02:58;14.90;99.90
13148;DHT22;6639;50.956;4.242;2023-02-18T12:05:27;15.20;99.90
13148;DHT22;6639;50.956;4.242;2023-02-18T12:07:58;15.00;99.90
13148;DHT22;6639;50.956;4.242;2023-02-18T12:10:30;15.00;99.90
13148;DHT22;6639;50.956;4.242;2023-02-18T12:13:01;15.50;99.90
13148;DHT22;6639;50.956;4.242;2023-02-18T12:15:36;15.60;99.90
13148;DHT22;6639;50.956;4.242;2023-02-18T12:18:26;15.40;99.90
13148;DHT22;6639;50.956;4.242;2023-02-18T12:21:10;15.40;99.90
13148;DHT22;6639;50.956;4.242;2023-02-18T12:23:48;15.60;99.90
13148;DHT22;6639;50.956;4.242;2023-02-18T12:26:23;15.30;99.90
13148;DHT22;6639;50.956;4.242;2023-02-18T12:29:05;14.80;99.90
13148;DHT22;6639;50.956;4.242;2023-02-18T12:31:47;14.80;99.90
13148;DHT22;6639;50.956;4.242;2023-02-18T12:34:29;14.80;99.90
13148;DHT22;6639;50.956;4.242;2023-02-18T12:37:10;15.00;99.90
13148;DHT22;6639;50.956;4.242;2023-02-18T12:39:54;15.40;99.90
13148;DHT22;6639;50.956;4.242;2023-02-18T12:42:38;15.40;99.90
13148;DHT22;6639;50.956;4.242;2023-02-18T12:45:21;15.30;99.90
13148;DHT22;6639;50.956;4.242;2023-02-18T12:48:10;15.10;99.90
13148;DHT22;6639;50.956;4.242;2023-02-18T12:50:48;15.20;99.90
13148;DHT22;6639;50.956;4.242;2023-02-18T12:53:38;15.30;99.90
13148;DHT22;6639;50.956;4.242;2023-02-18T12:59:12;15.20;99.90
13148;DHT22;6639;50.956;4.242;2023-02-18T13:01:47;15.50;99.90
13148;DHT22;6639;50.956;4.242;2023-02-18T13:04:29;15.30;99.90
13148;DHT22;6639;50.956;4.242;2023-02-18T13:07:27;15.50;99.90
13148;DHT22;6639;50.956;4.242;2023-02-18T13:10:16;15.20;99.90
13148;DHT22;6639;50.956;4.242;2023-02-18T13:12:50;15.40;99.90
13148;DHT22;6639;50.956;4.242;2023-02-18T13:15:24;15.30;99.90
13148;DHT22;6639;50.956;4.242;2023-02-18T13:17:56;15.20;99.90
13148;DHT22;6639;50.956;4.242;2023-02-18T13:20:32;15.30;99.90
13148;DHT22;6639;50.956;4.242;2023-02-18T13:23:01;15.20;99.90
13148;DHT22;6639;50.956;4.242;2023-02-18T13:25:31;15.10;99.90
13148;DHT22;6639;50.956;4.242;2023-02-18T13:28:12;14.70;99.90
13148;DHT22;6639;50.956;4.242;2023-02-18T13:30:46;14.50;99.90
13148;DHT22;6639;50.956;4.242;2023-02-18T13:33:18;14.60;99.90
13148;DHT22;6639;50.956;4.242;2023-02-18T13:35:54;14.70;99.90
13148;DHT22;6639;50.956;4.242;2023-02-18T13:38:44;14.70;99.90
13148;DHT22;6639;50.956;4.242;2023-02-18T13:41:16;15.10;99.90
13148;DHT22;6639;50.956;4.242;2023-02-18T13:43:45;14.80;99.90
13148;DHT22;6639;50.956;4.242;2023-02-18T13:46:15;15.00;99.90
13148;DHT22;6639;50.956;4.242;2023-02-18T13:48:46;15.00;99.90
13148;DHT22;6639;50.956;4.242;2023-02-18T13:51:15;14.60;99.90
13148;DHT22;6639;50.956;4.242;2023-02-18T13:53:48;14.40;99.90
13148;DHT22;6639;50.956;4.242;2023-02-18T13:56:20;14.50;99.90
13148;DHT22;6639;50.956;4.242;2023-02-18T13:58:49;14.70;99.90
13148;DHT22;6639;50.956;4.242;2023-02-18T14:01:30;14.90;99.90
13148;DHT22;6639;50.956;4.242;2023-02-18T14:04:01;15.10;99.90
13148;DHT22;6639;50.956;4.242;2023-02-18T14:06:31;15.00;99.90
13148;DHT22;6639;50.956;4.242;2023-02-18T14:09:35;14.60;99.90
13148;DHT22;6639;50.956;4.242;2023-02-18T14:14:58;14.80;99.90
13148;DHT22;6639;50.956;4.242;2023-02-18T14:17:37;14.60;99.90
13148;DHT22;6639;50.956;4.242;2023-02-18T14:23:43;14.70;99.90
13148;DHT22;6639;50.956;4.242;2023-02-18T14:26:31;14.90;99.90
13148;DHT22;6639;50.956;4.242;2023-02-18T14:29:03;14.70;99.90
13148;DHT22;6639;50.956;4.242;2023-02-18T14:31:40;14.50;99.90
13148;DHT22;6639;50.956;4.242;2023-02-18T14:40:43;14.50;99.90
13148;DHT22;6639;50.956;4.242;2023-02-18T14:43:25;14.80;99.90
13148;DHT22;6639;50.956;4.242;2023-02-18T14:46:08;14.60;99.90
13148;DHT22;6639;50.956;4.242;2023-02-18T14:51:45;14.80;99.90
13148;DHT22;6639;50.956;4.242;2023-02-18T14:54:16;14.60;99.90
13148;DHT22;6639;50.956;4.242;2023-02-18T14:56:52;14.70;99.90
13148;DHT22;6639;50.956;4.242;2023-02-18T14:59:23;14.80;99.90
13148;DHT22;6639;50.956;4.242;2023-02-18T15:01:53;14.90;99.90
13148;DHT22;6639;50.956;4.242;2023-02-18T15:04:22;14.40;99.90
13148;DHT22;6639;50.956;4.242;2023-02-18T15:06:58;14.50;99.90
13148;DHT22;6639;50.956;4.242;2023-02-18T15:09:25;14.40;99.90
13148;DHT22;6639;50.956;4.242;2023-02-18T15:11:56;14.50;99.90
13148;DHT22;6639;50.956;4.242;2023-02-18T15:14:29;14.60;99.90
13148;DHT22;6639;50.956;4.242;2023-02-18T15:16:57;14.70;99.90
13148;DHT22;6639;50.956;4.242;2023-02-18T15:19:26;14.50;99.90
13148;DHT22;6639;50.956;4.242;2023-02-18T15:21:55;14.50;99.90
13148;DHT22;6639;50.956;4.242;2023-02-18T15:24:25;14.50;99.90
13148;DHT22;6639;50.956;4.242;2023-02-18T15:26:53;14.40;99.90
13148;DHT22;6639;50.956;4.242;2023-02-18T15:29:23;14.60;99.90
13148;DHT22;6639;50.956;4.242;2023-02-18T15:31:54;14.70;99.90
13148;DHT22;6639;50.956;4.242;2023-02-18T15:34:41;14.80;99.90
13148;DHT22;6639;50.956;4.242;2023-02-18T15:37:11;15.10;99.90
13148;DHT22;6639;50.956;4.242;2023-02-18T15:39:41;15.30;99.90
13148;DHT22;6639;50.956;4.242;2023-02-18T15:42:18;14.90;99.90
13148;DHT22;6639;50.956;4.242;2023-02-18T15:44:49;14.60;99.90
13148;DHT22;6639;50.956;4.242;2023-02-18T15:47:19;15.50;99.90
13148;DHT22;6639;50.956;4.242;2023-02-18T15:49:50;15.70;99.90
13148;DHT22;6639;50.956;4.242;2023-02-18T15:52:23;15.60;99.90
13148;DHT22;6639;50.956;4.242;2023-02-18T15:54:51;15.50;99.90
13148;DHT22;6639;50.956;4.242;2023-02-18T15:57:19;15.40;99.90
13148;DHT22;6639;50.956;4.242;2023-02-18T15:59:54;15.10;99.90
13148;DHT22;6639;50.956;4.242;2023-02-18T16:02:23;15.00;99.90
13148;DHT22;6639;50.956;4.242;2023-02-18T16:04:54;14.90;99.90
13148;DHT22;6639;50.956;4.242;2023-02-18T16:07:24;15.10;99.90
13148;DHT22;6639;50.956;4.242;2023-02-18T16:10:16;15.00;99.90
13148;DHT22;6639;50.956;4.242;2023-02-18T16:12:45;14.90;99.90
13148;DHT22;6639;50.956;4.242;2023-02-18T16:15:25;15.20;99.90
13148;DHT22;6639;50.956;4.242;2023-02-18T16:17:54;15.50;99.90
13148;DHT22;6639;50.956;4.242;2023-02-18T16:20:28;15.20;99.90
13148;DHT22;6639;50.956;4.242;2023-02-18T16:22:59;14.90;99.90
13148;DHT22;6639;50.956;4.242;2023-02-18T16:25:39;15.00;99.90
13148;DHT22;6639;50.956;4.242;2023-02-18T16:28:12;15.30;99.90
13148;DHT22;6639;50.956;4.242;2023-02-18T16:30:41;15.10;99.90
13148;DHT22;6639;50.956;4.242;2023-02-18T16:33:11;14.80;99.90